createdAt,value
2018-06-23T00:01:10.192Z,91.40
2018-06-23T00:03:38.486Z,91.50
2018-06-23T00:06:06.765Z,91.60
2018-06-23T00:08:35.033Z,91.70
2018-06-23T00:11:03.299Z,91.70
2018-06-23T00:13:31.555Z,91.80
2018-06-23T00:15:59.820Z,91.80
2018-06-23T00:18:28.056Z,91.90
2018-06-23T00:20:56.267Z,91.90
2018-06-23T00:23:24.463Z,91.90
2018-06-23T00:25:58.018Z,91.90
2018-06-23T00:28:26.249Z,92.00
2018-06-23T00:30:54.524Z,92.10
2018-06-23T00:33:22.809Z,92.10
2018-06-23T00:35:51.050Z,92.20
2018-06-23T00:38:19.323Z,92.30
2018-06-23T00:40:47.562Z,92.40
2018-06-23T00:43:15.822Z,92.50
2018-06-23T00:45:44.042Z,92.50
2018-06-23T00:48:12.290Z,92.60
2018-06-23T00:50:40.490Z,92.60
2018-06-23T00:53:08.675Z,92.70
2018-06-23T00:55:36.924Z,92.70
2018-06-23T00:58:05.172Z,92.80
2018-06-23T01:00:33.449Z,93.00
2018-06-23T01:03:01.635Z,93.10
2018-06-23T01:07:58.125Z,93.30
2018-06-23T01:10:26.358Z,93.30
2018-06-23T01:12:54.621Z,93.30
2018-06-23T01:15:22.857Z,93.40
2018-06-23T01:17:51.043Z,93.40
2018-06-23T01:20:19.239Z,93.70
2018-06-23T01:22:47.436Z,93.60
2018-06-23T01:25:15.701Z,93.70
2018-06-23T01:27:43.942Z,93.70
2018-06-23T01:30:12.248Z,93.80
2018-06-23T01:32:40.427Z,93.80
2018-06-23T01:35:08.685Z,93.70
2018-06-23T01:37:36.946Z,93.80
2018-06-23T01:40:05.193Z,93.70
2018-06-23T01:42:33.476Z,93.80
2018-06-23T01:45:01.740Z,93.90
2018-06-23T01:47:29.957Z,93.90
2018-06-23T01:49:58.232Z,94.00
2018-06-23T01:52:26.473Z,94.00
2018-06-23T01:54:54.725Z,94.00
2018-06-23T01:57:22.973Z,94.10
2018-06-23T01:59:51.228Z,94.20
2018-06-23T02:02:19.494Z,94.30
2018-06-23T02:04:47.756Z,94.30
2018-06-23T02:07:16.022Z,94.40
2018-06-23T02:09:44.273Z,94.60
2018-06-23T02:12:12.549Z,94.70
2018-06-23T02:14:45.966Z,94.70
2018-06-23T02:17:19.589Z,94.90
2018-06-23T02:21:58.641Z,94.90
2018-06-23T02:24:32.327Z,95.00
2018-06-23T02:27:05.945Z,95.10
2018-06-23T02:29:39.607Z,95.10
2018-06-23T02:32:46.630Z,95.20
2018-06-23T02:35:14.893Z,95.20
2018-06-23T02:37:43.151Z,95.10
2018-06-23T02:40:11.415Z,95.10
2018-06-23T02:42:39.665Z,95.20
2018-06-23T02:45:07.943Z,95.30
2018-06-23T02:47:36.308Z,95.20
2018-06-23T02:50:04.753Z,95.20
2018-06-23T02:52:33.126Z,95.20
2018-06-23T02:55:01.560Z,95.10
2018-06-23T02:57:29.970Z,95.00
2018-06-23T02:59:58.159Z,95.10
2018-06-23T03:02:26.555Z,95.10
2018-06-23T03:04:54.907Z,95.10
2018-06-23T03:07:23.167Z,95.10
2018-06-23T03:09:51.417Z,95.10
2018-06-23T03:12:19.693Z,95.20
2018-06-23T03:14:47.924Z,95.30
2018-06-23T03:17:17.230Z,95.30
2018-06-23T03:19:51.928Z,95.50
2018-06-23T03:22:20.284Z,95.60
2018-06-23T03:24:48.518Z,95.70
2018-06-23T03:29:44.935Z,95.80
2018-06-23T03:32:13.294Z,95.90
2018-06-23T03:34:41.566Z,96.10
2018-06-23T03:37:09.956Z,96.10
2018-06-23T03:39:38.183Z,95.90
2018-06-23T03:42:06.713Z,96.00
2018-06-23T03:44:35.090Z,96.00
2018-06-23T03:47:03.369Z,96.00
2018-06-23T03:49:31.568Z,96.10
2018-06-23T03:51:59.767Z,96.20
2018-06-23T03:54:28.006Z,96.30
2018-06-23T03:56:56.364Z,96.30
2018-06-23T03:59:24.598Z,96.30
2018-06-23T04:01:53.523Z,96.30
2018-06-23T04:04:21.769Z,96.30
2018-06-23T04:06:50.021Z,96.20
2018-06-23T04:09:18.297Z,96.20
2018-06-23T04:11:46.510Z,96.30
2018-06-23T04:14:14.761Z,96.20
2018-06-23T04:16:43.075Z,96.30
2018-06-23T04:19:11.246Z,96.30
2018-06-23T04:21:39.432Z,96.30
2018-06-23T04:24:07.633Z,96.70
2018-06-23T04:26:35.819Z,96.30
2018-06-23T04:29:04.088Z,96.30
2018-06-23T04:31:32.335Z,96.30
2018-06-23T04:34:00.523Z,96.40
2018-06-23T04:36:28.728Z,96.40
2018-06-23T04:38:56.977Z,96.40
2018-06-23T04:41:25.231Z,96.40
2018-06-23T04:43:53.521Z,96.50
2018-06-23T04:46:21.719Z,96.50
2018-06-23T04:48:49.965Z,96.30
2018-06-23T04:51:18.230Z,96.10
2018-06-23T04:53:47.633Z,96.00
2018-06-23T04:56:16.336Z,96.00
2018-06-23T04:58:44.588Z,95.90
2018-06-23T05:01:13.036Z,95.90
2018-06-23T05:03:41.276Z,95.90
2018-06-23T05:06:09.713Z,96.00
2018-06-23T05:08:38.680Z,96.00
2018-06-23T05:11:07.259Z,96.20
2018-06-23T05:13:35.781Z,96.30
2018-06-23T05:16:04.420Z,96.50
2018-06-23T05:18:32.780Z,96.50
2018-06-23T05:21:01.006Z,96.60
2018-06-23T05:23:29.289Z,96.60
2018-06-23T05:25:57.601Z,96.70
2018-06-23T05:28:25.835Z,96.60
2018-06-23T05:30:54.199Z,96.40
2018-06-23T05:33:23.136Z,96.40
2018-06-23T05:35:51.719Z,96.10
2018-06-23T05:38:19.908Z,96.10
2018-06-23T05:40:48.141Z,95.80
2018-06-23T05:43:16.409Z,94.90
2018-06-23T05:45:44.614Z,94.30
2018-06-23T05:48:13.086Z,94.30
2018-06-23T05:53:09.452Z,94.00
2018-06-23T05:55:37.737Z,93.70
2018-06-23T05:58:05.933Z,93.20
2018-06-23T06:00:34.132Z,92.80
2018-06-23T06:03:02.320Z,92.80
2018-06-23T06:05:30.873Z,92.40
2018-06-23T06:07:59.131Z,92.20
2018-06-23T06:10:27.409Z,92.10
2018-06-23T06:12:55.615Z,91.90
2018-06-23T06:15:23.849Z,91.40
2018-06-23T06:17:52.163Z,91.40
2018-06-23T06:20:20.355Z,91.20
2018-06-23T06:22:48.606Z,91.10
2018-06-23T06:25:18.809Z,90.50
2018-06-23T06:27:47.092Z,90.40
2018-06-23T06:30:16.262Z,90.40
2018-06-23T06:32:44.481Z,90.00
2018-06-23T06:35:12.798Z,89.70
2018-06-23T06:40:09.145Z,88.30
2018-06-23T06:42:37.352Z,88.00
2018-06-23T06:45:06.091Z,88.00
2018-06-23T06:47:34.392Z,88.80
2018-06-23T06:50:02.776Z,88.30
2018-06-23T06:52:31.335Z,87.90
2018-06-23T06:54:59.971Z,87.50
2018-06-23T06:57:28.238Z,86.20
2018-06-23T07:02:24.652Z,87.20
2018-06-23T07:04:52.876Z,85.80
2018-06-23T07:07:21.686Z,86.20
2018-06-23T07:09:49.976Z,85.60
2018-06-23T07:12:18.163Z,84.70
2018-06-23T07:14:46.361Z,84.10
2018-06-23T07:17:14.755Z,82.80
2018-06-23T07:19:42.982Z,82.20
2018-06-23T07:22:11.184Z,80.80
2018-06-23T07:24:39.479Z,79.70
2018-06-23T07:27:08.072Z,80.60
2018-06-23T07:29:36.393Z,79.80
2018-06-23T07:32:04.792Z,78.60
2018-06-23T07:34:33.076Z,78.10
2018-06-23T07:37:01.354Z,78.70
2018-06-23T07:39:31.252Z,78.70
2018-06-23T07:41:59.457Z,78.60
2018-06-23T07:44:27.650Z,77.70
2018-06-23T07:46:55.951Z,77.20
2018-06-23T07:49:24.189Z,77.00
2018-06-23T07:51:52.391Z,77.40
2018-06-23T07:54:20.652Z,76.40
2018-06-23T07:59:16.899Z,75.60
2018-06-23T08:04:13.149Z,74.80
2018-06-23T08:06:41.389Z,73.70
2018-06-23T08:09:10.107Z,72.80
2018-06-23T08:11:38.490Z,72.00
2018-06-23T08:14:06.736Z,71.40
2018-06-23T08:16:35.069Z,71.70
2018-06-23T08:19:03.342Z,70.80
2018-06-23T08:21:31.528Z,70.40
2018-06-23T08:23:59.796Z,71.30
2018-06-23T08:26:28.123Z,70.90
2018-06-23T08:28:57.099Z,71.00
2018-06-23T08:31:25.340Z,70.80
2018-06-23T08:33:53.534Z,70.90
2018-06-23T08:36:21.824Z,71.30
2018-06-23T08:41:18.201Z,68.30
2018-06-23T08:43:46.632Z,65.20
2018-06-23T08:46:14.813Z,65.30
2018-06-23T08:48:43.093Z,65.30
2018-06-23T08:51:11.271Z,64.70
2018-06-23T08:53:39.648Z,64.80
2018-06-23T08:56:07.950Z,66.40
2018-06-23T08:58:36.191Z,66.70
2018-06-23T09:01:04.823Z,66.80
2018-06-23T09:03:33.023Z,66.50
2018-06-23T09:06:01.352Z,64.90
2018-06-23T09:08:29.632Z,64.80
2018-06-23T09:10:57.890Z,64.10
2018-06-23T09:13:26.083Z,62.80
2018-06-23T09:15:54.340Z,62.10
2018-06-23T09:18:22.523Z,60.80
2018-06-23T09:20:50.777Z,61.30
2018-06-23T09:23:19.015Z,59.70
2018-06-23T09:25:47.325Z,60.00
2018-06-23T09:28:15.529Z,59.50
2018-06-23T09:30:43.730Z,58.60
2018-06-23T09:33:11.941Z,58.40
2018-06-23T09:35:40.200Z,58.70
2018-06-23T09:38:08.456Z,58.00
2018-06-23T09:40:36.983Z,57.70
2018-06-23T09:43:05.254Z,57.90
2018-06-23T09:45:33.463Z,58.70
2018-06-23T09:48:01.661Z,58.10
2018-06-23T09:50:29.852Z,57.80
2018-06-23T09:52:58.109Z,57.70
2018-06-23T09:57:54.353Z,55.70
2018-06-23T10:02:58.369Z,55.60
2018-06-23T10:05:26.628Z,55.30
2018-06-23T10:07:54.951Z,55.00
2018-06-23T10:10:23.212Z,53.90
2018-06-23T10:12:51.518Z,53.20
2018-06-23T10:15:19.791Z,52.80
2018-06-23T10:17:48.069Z,52.50
2018-06-23T10:20:16.267Z,52.90
2018-06-23T10:22:44.431Z,51.60
2018-06-23T10:25:12.703Z,51.20
2018-06-23T10:27:40.880Z,51.20
2018-06-23T10:30:09.096Z,51.80
2018-06-23T10:35:05.591Z,52.70
2018-06-23T10:37:33.892Z,53.20
2018-06-23T10:40:02.357Z,52.40
2018-06-23T10:42:30.627Z,53.00
2018-06-23T10:44:58.866Z,53.40
2018-06-23T10:47:27.150Z,53.20
2018-06-23T10:49:55.628Z,51.80
2018-06-23T10:52:23.906Z,52.00
2018-06-23T10:54:52.191Z,51.30
2018-06-23T10:57:20.602Z,50.90
2018-06-23T11:02:16.751Z,51.70
2018-06-23T11:04:45.389Z,52.40
2018-06-23T11:07:13.668Z,53.50
2018-06-23T11:09:41.931Z,54.40
2018-06-23T11:12:10.234Z,54.90
2018-06-23T11:14:38.481Z,54.80
2018-06-23T11:17:06.740Z,55.50
2018-06-23T11:19:34.920Z,55.30
2018-06-23T11:22:03.126Z,54.50
2018-06-23T11:24:31.447Z,54.60
2018-06-23T11:26:59.689Z,54.90
2018-06-23T11:29:27.930Z,54.00
2018-06-23T11:31:56.112Z,53.70
2018-06-23T11:34:24.337Z,51.30
2018-06-23T11:36:52.532Z,50.00
2018-06-23T11:39:20.791Z,50.50
2018-06-23T11:41:49.059Z,49.80
2018-06-23T11:44:17.337Z,50.70
2018-06-23T11:46:45.588Z,50.90
2018-06-23T11:49:13.860Z,51.90
2018-06-23T11:51:42.131Z,52.20
2018-06-23T11:54:10.406Z,51.60
2018-06-23T11:56:38.663Z,51.60
2018-06-23T11:59:06.871Z,50.80
2018-06-23T12:01:35.082Z,50.50
2018-06-23T12:04:03.354Z,49.80
2018-06-23T12:06:31.573Z,49.00
2018-06-23T12:08:59.798Z,47.40
2018-06-23T12:11:28.054Z,47.80
2018-06-23T12:13:56.283Z,48.10
2018-06-23T12:16:24.464Z,47.00
2018-06-23T12:18:52.713Z,46.00
2018-06-23T12:23:48.937Z,44.70
2018-06-23T12:26:17.215Z,43.80
2018-06-23T12:28:45.419Z,44.60
2018-06-23T12:31:13.638Z,46.00
2018-06-23T12:33:41.905Z,47.10
2018-06-23T12:36:10.163Z,48.50
2018-06-23T12:38:38.336Z,48.20
2018-06-23T12:41:06.529Z,47.20
2018-06-23T12:43:34.760Z,47.60
2018-06-23T12:46:03.046Z,48.00
2018-06-23T12:48:31.342Z,48.90
2018-06-23T12:50:59.536Z,48.90
2018-06-23T12:55:55.876Z,49.60
2018-06-23T12:58:24.149Z,49.20
2018-06-23T13:00:52.431Z,49.60
2018-06-23T13:03:20.704Z,50.30
2018-06-23T13:05:48.960Z,51.00
2018-06-23T13:08:17.219Z,52.30
2018-06-23T13:10:45.431Z,52.60
2018-06-23T13:13:13.646Z,52.30
2018-06-23T13:15:41.906Z,52.30
2018-06-23T13:18:10.210Z,50.60
2018-06-23T13:20:39.068Z,50.00
2018-06-23T13:23:07.256Z,47.90
2018-06-23T13:25:35.493Z,48.40
2018-06-23T13:28:03.852Z,47.70
2018-06-23T13:30:32.055Z,47.00
2018-06-23T13:33:00.275Z,46.50
2018-06-23T13:35:28.541Z,46.70
2018-06-23T13:37:56.782Z,47.20
2018-06-23T13:40:25.087Z,48.40
2018-06-23T13:45:21.433Z,50.10
2018-06-23T13:47:49.697Z,51.10
2018-06-23T13:50:17.963Z,51.90
2018-06-23T13:52:46.199Z,52.20
2018-06-23T13:55:14.414Z,52.00
2018-06-23T13:57:42.612Z,52.80
2018-06-23T14:00:11.550Z,53.30
2018-06-23T14:02:40.111Z,53.30
2018-06-23T14:05:08.299Z,52.70
2018-06-23T14:07:36.595Z,53.20
2018-06-23T14:10:05.292Z,53.70
2018-06-23T14:12:33.539Z,52.70
2018-06-23T14:17:29.909Z,53.10
2018-06-23T14:19:58.123Z,54.10
2018-06-23T14:22:26.367Z,54.10
2018-06-23T14:24:54.628Z,54.40
2018-06-23T14:27:23.084Z,54.40
2018-06-23T14:29:52.150Z,55.10
2018-06-23T14:32:20.469Z,56.10
2018-06-23T14:34:48.670Z,56.90
2018-06-23T14:37:16.914Z,57.30
2018-06-23T14:39:45.210Z,57.90
2018-06-23T14:42:13.388Z,57.50
2018-06-23T14:44:41.673Z,57.20
2018-06-23T14:47:10.005Z,57.70
2018-06-23T14:49:38.230Z,57.00
2018-06-23T14:52:06.541Z,57.10
2018-06-23T14:57:03.240Z,56.70
2018-06-23T14:59:31.423Z,56.50
2018-06-23T15:01:59.698Z,57.30
2018-06-23T15:04:27.979Z,57.50
2018-06-23T15:06:56.193Z,57.50
2018-06-23T15:09:35.834Z,57.20
2018-06-23T15:12:15.437Z,57.40
2018-06-23T15:14:43.836Z,57.70
2018-06-23T15:17:12.313Z,58.30
2018-06-23T15:19:40.544Z,59.30
2018-06-23T15:22:08.780Z,58.60
2018-06-23T15:24:36.976Z,58.50
2018-06-23T15:27:05.695Z,58.30
2018-06-23T15:29:33.894Z,58.00
2018-06-23T15:32:02.136Z,57.40
2018-06-23T15:34:30.315Z,57.90
2018-06-23T15:36:58.597Z,57.90
2018-06-23T15:39:26.924Z,57.90
2018-06-23T15:41:55.111Z,57.70
2018-06-23T15:44:23.372Z,57.80
2018-06-23T15:46:51.621Z,57.70
2018-06-23T15:49:19.894Z,58.30
2018-06-23T15:51:48.460Z,58.30
2018-06-23T15:54:16.771Z,58.60
2018-06-23T15:56:45.010Z,59.00
2018-06-23T15:59:13.255Z,59.90
2018-06-23T16:01:41.463Z,60.70
2018-06-23T16:04:09.664Z,61.70
2018-06-23T16:06:37.865Z,62.40
2018-06-23T16:09:08.474Z,62.60
2018-06-23T16:11:36.667Z,62.70
2018-06-23T16:14:04.933Z,62.40
2018-06-23T16:16:33.233Z,61.90
2018-06-23T16:19:01.483Z,60.70
2018-06-23T16:21:29.840Z,60.30
2018-06-23T16:23:58.031Z,60.20
2018-06-23T16:26:26.264Z,61.80
2018-06-23T16:28:54.510Z,61.40
2018-06-23T16:31:22.756Z,61.10
2018-06-23T16:36:18.971Z,60.10
2018-06-23T16:38:47.537Z,60.40
2018-06-23T16:41:15.721Z,60.90
2018-06-23T16:43:43.969Z,61.00
2018-06-23T16:46:12.218Z,62.10
2018-06-23T16:48:40.403Z,62.80
2018-06-23T16:51:08.668Z,61.90
2018-06-23T16:53:36.859Z,62.00
2018-06-23T16:56:05.297Z,62.30
2018-06-23T16:58:33.511Z,61.40
2018-06-23T17:01:01.778Z,61.10
2018-06-23T17:03:30.070Z,61.60
2018-06-23T17:05:58.232Z,61.90
2018-06-23T17:08:26.527Z,61.20
2018-06-23T17:10:54.707Z,61.40
2018-06-23T17:13:22.959Z,62.20
2018-06-23T17:15:51.224Z,61.30
2018-06-23T17:18:19.416Z,61.30
2018-06-23T17:20:47.628Z,61.40
2018-06-23T17:23:15.868Z,61.80
2018-06-23T17:25:44.150Z,62.10
2018-06-23T17:28:12.687Z,61.90
2018-06-23T17:30:41.028Z,62.30
2018-06-23T17:33:09.214Z,62.80
2018-06-23T17:35:37.638Z,62.50
2018-06-23T17:38:05.908Z,62.00
2018-06-23T17:40:34.168Z,61.80
2018-06-23T17:43:02.787Z,62.00
2018-06-23T17:45:31.045Z,62.60
2018-06-23T17:47:59.329Z,62.70
2018-06-23T17:50:27.536Z,62.80
2018-06-23T17:52:55.736Z,63.60
2018-06-23T17:55:24.003Z,63.00
2018-06-23T17:57:52.333Z,63.60
2018-06-23T18:00:20.496Z,64.20
2018-06-23T18:02:48.701Z,65.00
2018-06-23T18:05:16.914Z,65.40
2018-06-23T18:07:45.253Z,65.40
2018-06-23T18:10:13.508Z,65.80
2018-06-23T18:12:41.704Z,66.20
2018-06-23T18:15:09.982Z,66.50
2018-06-23T18:17:38.223Z,67.10
2018-06-23T18:20:06.488Z,67.70
2018-06-23T18:22:35.000Z,67.60
2018-06-23T18:25:03.245Z,67.50
2018-06-23T18:27:31.451Z,67.60
2018-06-23T18:29:59.688Z,67.50
2018-06-23T18:32:28.034Z,67.90
2018-06-23T18:34:56.226Z,67.80
2018-06-23T18:37:24.495Z,68.10
2018-06-23T18:39:52.750Z,68.30
2018-06-23T18:42:21.152Z,68.80
2018-06-23T18:44:49.343Z,68.90
2018-06-23T18:47:17.570Z,69.00
2018-06-23T18:49:45.859Z,69.50
2018-06-23T18:52:14.268Z,69.70
2018-06-23T18:54:42.546Z,70.30
2018-06-23T18:57:11.086Z,70.70
2018-06-23T18:59:39.435Z,71.30
2018-06-23T19:02:07.684Z,71.70
2018-06-23T19:04:35.923Z,72.30
2018-06-23T19:07:04.182Z,72.90
2018-06-23T19:09:32.458Z,73.60
2018-06-23T19:12:00.704Z,74.00
2018-06-23T19:14:28.992Z,74.40
2018-06-23T19:16:57.270Z,74.80
2018-06-23T19:19:25.464Z,75.10
2018-06-23T19:21:53.709Z,75.70
2018-06-23T19:24:21.958Z,76.00
2018-06-23T19:26:50.208Z,76.30
2018-06-23T19:29:18.427Z,76.80
2018-06-23T19:31:46.621Z,77.20
2018-06-23T19:34:14.895Z,77.80
2018-06-23T19:36:43.156Z,78.30
2018-06-23T19:39:11.835Z,79.20
2018-06-23T19:41:40.070Z,79.40
2018-06-23T19:44:08.364Z,80.00
2018-06-23T19:46:36.936Z,80.30
2018-06-23T19:49:05.201Z,80.80
2018-06-23T19:51:33.465Z,81.20
2018-06-23T19:54:01.732Z,81.50
2018-06-23T19:56:29.970Z,81.80
2018-06-23T19:58:58.177Z,82.00
2018-06-23T20:01:26.372Z,82.40
2018-06-23T20:03:54.592Z,82.70
2018-06-23T20:06:22.802Z,82.70
2018-06-23T20:08:51.082Z,83.30
2018-06-23T20:11:19.278Z,83.90
2018-06-23T20:13:47.480Z,84.20
2018-06-23T20:16:15.671Z,84.40
2018-06-23T20:18:43.930Z,84.50
2018-06-23T20:21:12.122Z,84.70
2018-06-23T20:23:40.397Z,85.20
2018-06-23T20:26:08.588Z,85.60
2018-06-23T20:28:36.843Z,85.80
2018-06-23T20:31:05.035Z,86.10
2018-06-23T20:33:33.314Z,86.30
2018-06-23T20:36:01.524Z,86.50
2018-06-23T20:38:29.752Z,86.70
2018-06-23T20:40:58.025Z,86.70
2018-06-23T20:43:26.207Z,86.90
2018-06-23T20:45:54.613Z,87.00
2018-06-23T20:48:22.835Z,87.40
2018-06-23T20:50:51.084Z,87.50
2018-06-23T20:53:19.563Z,87.70
2018-06-23T20:55:47.843Z,88.00
2018-06-23T20:58:16.029Z,88.00
2018-06-23T21:00:44.251Z,88.10
2018-06-23T21:03:12.525Z,88.30
2018-06-23T21:05:41.195Z,88.60
2018-06-23T21:08:09.452Z,88.60
2018-06-23T21:10:42.054Z,89.00
2018-06-23T21:13:10.777Z,89.10
2018-06-23T21:15:39.056Z,89.20
2018-06-23T21:18:07.567Z,89.50
2018-06-23T21:20:35.748Z,89.80
2018-06-23T21:23:04.240Z,90.00
2018-06-23T21:25:32.419Z,90.00
2018-06-23T21:28:00.670Z,90.10
2018-06-23T21:30:28.850Z,90.30
2018-06-23T21:32:57.034Z,90.20
2018-06-23T21:35:25.750Z,90.30
2018-06-23T21:37:54.435Z,90.40
2018-06-23T21:40:22.791Z,90.50
2018-06-23T21:42:51.049Z,90.60
2018-06-23T21:45:22.243Z,90.70
2018-06-23T21:47:50.435Z,90.70
2018-06-23T21:50:18.692Z,90.80
2018-06-23T21:52:46.961Z,90.80
2018-06-23T21:55:15.266Z,91.00
2018-06-23T21:57:43.458Z,91.10
2018-06-23T22:00:23.968Z,91.20
2018-06-23T22:02:52.213Z,91.30
2018-06-23T22:05:20.452Z,91.50
2018-06-23T22:07:48.701Z,91.60
2018-06-23T22:10:16.977Z,91.70
2018-06-23T22:12:45.234Z,91.60
2018-06-23T22:15:13.488Z,91.80
2018-06-23T22:17:41.760Z,91.80
2018-06-23T22:20:09.915Z,91.90
2018-06-23T22:22:38.113Z,92.00
2018-06-23T22:25:06.295Z,92.00
2018-06-23T22:27:34.565Z,92.10
2018-06-23T22:30:02.813Z,92.20
2018-06-23T22:32:31.056Z,92.20
2018-06-23T22:34:59.302Z,92.20
2018-06-23T22:39:55.775Z,92.30
2018-06-23T22:42:23.954Z,92.30
2018-06-23T22:44:52.212Z,92.20
2018-06-23T22:47:20.467Z,92.10
2018-06-23T22:49:48.694Z,92.20
2018-06-23T22:52:16.945Z,92.20
2018-06-23T22:54:45.219Z,92.10
2018-06-23T22:57:13.578Z,92.20
2018-06-23T22:59:41.744Z,92.10
2018-06-23T23:02:10.172Z,92.20
2018-06-23T23:04:38.499Z,92.30
2018-06-23T23:07:06.684Z,92.20
2018-06-23T23:09:34.978Z,92.20
2018-06-23T23:12:03.919Z,92.20
2018-06-23T23:17:00.189Z,92.30
2018-06-23T23:19:28.591Z,92.20
2018-06-23T23:21:57.207Z,92.30
2018-06-23T23:24:25.407Z,92.40
2018-06-23T23:29:21.684Z,92.30
2018-06-23T23:31:49.955Z,92.30
2018-06-23T23:34:18.374Z,92.40
2018-06-23T23:36:46.617Z,92.50
2018-06-23T23:39:14.810Z,92.40
2018-06-23T23:41:43.062Z,92.50
2018-06-23T23:44:11.320Z,92.60
2018-06-23T23:46:39.551Z,92.60
2018-06-23T23:49:07.932Z,92.60
2018-06-23T23:51:36.116Z,92.60
2018-06-23T23:54:04.391Z,93.10
2018-06-23T23:56:32.567Z,92.70
2018-06-23T23:59:00.820Z,92.70
